createdAt,value
2018-06-13T00:01:14.082Z,9.57
2018-06-13T00:03:50.086Z,12.20
2018-06-13T00:06:26.097Z,12.40
2018-06-13T00:09:02.119Z,12.20
2018-06-13T00:11:38.289Z,11.22
2018-06-13T00:14:14.098Z,11.60
2018-06-13T00:16:50.105Z,11.50
2018-06-13T00:19:26.083Z,11.38
2018-06-13T00:22:03.092Z,10.70
2018-06-13T00:24:38.795Z,13.83
2018-06-13T00:27:14.450Z,9.93
2018-06-13T00:29:50.522Z,13.35
2018-06-13T00:32:26.095Z,12.33
2018-06-13T00:35:04.676Z,12.03
2018-06-13T00:40:22.990Z,14.43
2018-06-13T00:42:59.911Z,12.73
2018-06-13T00:45:36.432Z,11.70
2018-06-13T00:48:13.585Z,13.85
2018-06-13T00:50:51.044Z,10.93
2018-06-13T00:53:28.503Z,12.77
2018-06-13T00:56:19.697Z,14.87
2018-06-13T00:58:56.983Z,10.60
2018-06-13T01:01:33.120Z,14.40
2018-06-13T01:04:09.108Z,14.90
2018-06-13T01:06:45.589Z,9.30
2018-06-13T01:09:22.787Z,11.20
2018-06-13T01:11:58.924Z,12.53
2018-06-13T01:14:34.552Z,12.63
2018-06-13T01:17:11.280Z,12.37
2018-06-13T01:19:47.880Z,14.03
2018-06-13T01:22:25.088Z,14.40
2018-06-13T01:25:01.271Z,14.57
2018-06-13T01:27:38.741Z,13.95
2018-06-13T01:33:00.325Z,13.80
2018-06-13T01:35:44.835Z,15.00
2018-06-13T01:38:26.212Z,12.53
2018-06-13T01:41:05.214Z,16.93
2018-06-13T01:43:44.634Z,13.15
2018-06-13T01:46:25.847Z,14.93
2018-06-13T01:51:45.323Z,14.97
2018-06-13T02:08:02.582Z,15.10
2018-06-13T02:10:41.474Z,11.38
2018-06-13T02:16:01.285Z,13.43
2018-06-13T02:18:42.283Z,16.00
2018-06-13T02:29:23.116Z,14.23
2018-06-13T02:32:03.826Z,11.23
2018-06-13T02:37:26.769Z,13.72
2018-06-13T02:48:08.702Z,14.23
2018-06-13T02:50:46.899Z,13.43
2018-06-13T02:53:24.108Z,14.20
2018-06-13T02:56:01.907Z,14.75
2018-06-13T02:58:41.210Z,17.77
2018-06-13T03:01:20.484Z,14.20
2018-06-13T03:03:57.926Z,13.33
2018-06-13T03:06:34.945Z,16.80
2018-06-13T03:09:13.491Z,12.87
2018-06-13T03:11:49.827Z,15.40
2018-06-13T03:14:26.023Z,16.30
2018-06-13T03:19:47.953Z,16.00
2018-06-13T03:22:26.467Z,16.00
2018-06-13T03:28:56.336Z,18.33
2018-06-13T03:31:33.953Z,15.80
2018-06-13T03:34:10.924Z,15.28
2018-06-13T03:36:47.404Z,16.63
2018-06-13T03:39:24.068Z,19.23
2018-06-13T03:42:00.127Z,17.48
2018-06-13T03:44:36.105Z,19.13
2018-06-13T03:47:12.272Z,19.00
2018-06-13T03:49:48.188Z,15.97
2018-06-13T03:52:24.215Z,18.70
2018-06-13T03:55:00.277Z,16.35
2018-06-13T03:57:36.735Z,22.30
2018-06-13T04:00:13.269Z,20.27
2018-06-13T04:02:49.278Z,21.97
2018-06-13T04:05:25.918Z,23.90
2018-06-13T04:08:01.876Z,27.50
2018-06-13T04:10:37.752Z,23.40
2018-06-13T04:13:13.457Z,18.10
2018-06-13T04:18:23.091Z,21.47
2018-06-13T04:20:58.806Z,17.03
2018-06-13T04:23:34.542Z,19.57
2018-06-13T04:26:10.273Z,19.50
2018-06-13T04:28:46.302Z,15.00
2018-06-13T04:31:22.287Z,18.82
2018-06-13T04:33:58.273Z,20.10
2018-06-13T04:36:34.420Z,20.95
2018-06-13T04:39:13.124Z,18.83
2018-06-13T04:41:49.266Z,17.83
2018-06-13T04:44:25.089Z,16.83
2018-06-13T04:47:00.920Z,17.82
2018-06-13T04:49:36.545Z,16.73
2018-06-13T04:52:12.459Z,19.60
2018-06-13T04:54:48.315Z,19.05
2018-06-13T04:57:24.414Z,20.40
2018-06-13T05:02:33.990Z,17.37
2018-06-13T05:05:10.088Z,18.67
2018-06-13T05:07:45.824Z,19.23
2018-06-13T05:10:21.762Z,12.93
2018-06-13T05:13:41.281Z,19.07
2018-06-13T05:16:17.086Z,17.17
2018-06-13T05:18:53.428Z,20.25
2018-06-13T05:21:29.268Z,16.87
2018-06-13T05:24:05.319Z,16.43
2018-06-13T05:26:41.092Z,17.57
2018-06-13T05:31:25.776Z,18.50
2018-06-13T05:34:01.799Z,16.82
2018-06-13T05:36:37.450Z,20.82
2018-06-13T05:39:14.123Z,17.40
2018-06-13T05:41:50.139Z,19.32
2018-06-13T05:44:26.100Z,18.10
2018-06-13T05:47:02.097Z,19.07
2018-06-13T05:49:38.210Z,17.92
2018-06-13T05:52:14.279Z,18.63
2018-06-13T05:54:50.712Z,18.98
2018-06-13T05:57:26.449Z,19.50
2018-06-13T06:00:02.273Z,18.90
2018-06-13T06:02:38.794Z,18.37
2018-06-13T06:05:14.546Z,17.57
2018-06-13T06:10:25.323Z,21.82
2018-06-13T06:13:01.281Z,24.63
2018-06-13T06:18:12.552Z,23.18
2018-06-13T06:23:23.088Z,27.07
2018-06-13T06:25:59.100Z,18.03
2018-06-13T06:28:34.797Z,21.65
2018-06-13T06:31:32.098Z,19.50
2018-06-13T06:34:07.877Z,18.87
2018-06-13T06:36:43.434Z,20.87
2018-06-13T06:39:19.430Z,19.80
2018-06-13T06:41:56.282Z,18.82
2018-06-13T06:44:33.495Z,20.97
2018-06-13T06:47:33.810Z,20.20
2018-06-13T06:50:10.010Z,19.30
2018-06-13T06:55:06.241Z,20.27
2018-06-13T06:57:42.163Z,15.75
2018-06-13T07:00:18.133Z,21.57
2018-06-13T07:05:28.090Z,17.70
2018-06-13T07:08:03.906Z,17.48
2018-06-13T07:10:40.253Z,20.30
2018-06-13T07:13:16.257Z,21.17
2018-06-13T07:15:52.247Z,18.15
2018-06-13T07:18:28.339Z,23.93
2018-06-13T07:25:46.089Z,18.23
2018-06-13T07:30:07.506Z,18.90
2018-06-13T07:32:44.073Z,16.45
2018-06-13T07:35:19.835Z,21.40
2018-06-13T07:37:55.506Z,22.87
2018-06-13T07:40:32.478Z,19.80
2018-06-13T07:43:09.093Z,22.98
2018-06-13T07:45:46.283Z,20.72
2018-06-13T07:48:23.484Z,20.57
2018-06-13T07:51:01.084Z,21.00
2018-06-13T07:53:37.943Z,24.23
2018-06-13T07:56:14.923Z,20.60
2018-06-13T07:58:52.079Z,18.13
2018-06-13T08:01:28.373Z,23.85
2018-06-13T08:04:05.389Z,18.25
2018-06-13T08:06:41.990Z,19.35
2018-06-13T08:09:19.099Z,23.12
2018-06-13T08:11:56.773Z,23.40
2018-06-13T08:14:34.106Z,13.93
2018-06-13T08:17:12.100Z,22.10
2018-06-13T08:19:48.855Z,21.12
2018-06-13T08:22:25.835Z,16.03
2018-06-13T08:25:02.477Z,21.02
2018-06-13T08:27:41.300Z,21.63
2018-06-13T08:30:17.697Z,19.20
2018-06-13T08:32:54.875Z,19.95
2018-06-13T08:35:32.089Z,17.63
2018-06-13T08:38:09.214Z,18.80
2018-06-13T08:40:46.427Z,19.90
2018-06-13T08:43:23.094Z,21.40
2018-06-13T08:46:00.517Z,17.95
2018-06-13T08:48:37.145Z,20.88
2018-06-13T08:51:14.209Z,20.27
2018-06-13T08:53:51.540Z,21.12
2018-06-13T08:56:29.099Z,23.02
2018-06-13T08:59:06.086Z,19.60
2018-06-13T09:01:43.123Z,22.40
2018-06-13T09:04:20.092Z,25.82
2018-06-13T09:06:57.451Z,24.37
2018-06-13T09:09:34.518Z,23.67
2018-06-13T09:12:11.924Z,23.63
2018-06-13T09:14:49.117Z,18.47
2018-06-13T09:17:26.103Z,18.33
2018-06-13T09:20:02.985Z,21.77
2018-06-13T09:22:40.301Z,18.80
2018-06-13T09:27:52.099Z,19.35
2018-06-13T09:30:28.777Z,21.23
2018-06-13T09:33:05.882Z,18.90
2018-06-13T09:35:43.309Z,19.57
2018-06-13T09:38:21.080Z,20.67
2018-06-13T09:40:58.098Z,25.95
2018-06-13T09:43:34.827Z,16.15
2018-06-13T09:46:12.467Z,23.05
2018-06-13T09:48:50.219Z,19.42
2018-06-13T09:51:28.094Z,17.98
2018-06-13T09:54:05.213Z,18.20
2018-06-13T09:59:21.396Z,22.27
2018-06-13T10:02:02.459Z,18.70
2018-06-13T10:04:39.356Z,17.93
2018-06-13T10:07:16.213Z,20.70
2018-06-13T10:12:28.860Z,17.52
2018-06-13T10:15:05.492Z,16.40
2018-06-13T10:17:43.090Z,20.53
2018-06-13T10:20:20.213Z,20.32
2018-06-13T10:22:57.301Z,20.15
2018-06-13T10:25:34.104Z,21.87
2018-06-13T10:28:10.514Z,21.60
2018-06-13T10:30:47.855Z,20.03
2018-06-13T10:33:25.438Z,19.37
2018-06-13T10:38:37.277Z,19.20
2018-06-13T10:41:14.406Z,17.03
2018-06-13T10:43:51.285Z,21.33
2018-06-13T10:46:28.094Z,22.87
2018-06-13T10:49:05.094Z,19.43
2018-06-13T10:51:43.111Z,20.85
2018-06-13T10:54:19.567Z,18.70
2018-06-13T10:56:56.505Z,17.77
2018-06-13T10:59:33.069Z,17.77
2018-06-13T11:02:09.452Z,17.03
2018-06-13T11:04:46.317Z,19.53
2018-06-13T11:07:23.212Z,18.93
2018-06-13T11:10:00.100Z,20.27
2018-06-13T11:12:37.736Z,17.43
2018-06-13T11:15:15.092Z,20.30
2018-06-13T11:17:52.092Z,21.85
2018-06-13T11:20:29.150Z,20.33
2018-06-13T11:23:07.881Z,19.92
2018-06-13T11:25:45.767Z,21.42
2018-06-13T11:28:22.847Z,19.75
2018-06-13T11:30:59.477Z,19.63
2018-06-13T11:33:36.521Z,18.77
2018-06-13T11:36:13.093Z,19.85
2018-06-13T11:38:49.892Z,20.57
2018-06-13T11:41:27.137Z,20.20
2018-06-13T11:44:04.994Z,18.43
2018-06-13T11:46:42.834Z,20.82
2018-06-13T11:49:19.866Z,19.03
2018-06-13T11:51:57.420Z,24.80
2018-06-13T11:54:34.094Z,19.07
2018-06-13T11:57:11.269Z,21.97
2018-06-13T11:59:48.476Z,25.27
2018-06-13T12:02:25.776Z,17.17
2018-06-13T12:05:02.954Z,17.37
2018-06-13T12:07:39.764Z,18.13
2018-06-13T12:10:16.634Z,22.67
2018-06-13T12:12:53.910Z,19.20
2018-06-13T12:15:31.094Z,19.50
2018-06-13T12:18:08.453Z,21.40
2018-06-13T12:23:20.494Z,25.50
2018-06-13T12:25:58.270Z,17.90
2018-06-13T12:28:35.958Z,20.80
2018-06-13T12:31:13.051Z,18.47
2018-06-13T12:33:50.319Z,20.40
2018-06-13T12:36:28.088Z,19.02
2018-06-13T12:39:05.092Z,16.77
2018-06-13T12:41:42.794Z,21.10
2018-06-13T12:44:20.787Z,21.73
2018-06-13T12:46:58.437Z,22.30
2018-06-13T12:49:35.397Z,22.17
2018-06-13T12:52:12.985Z,21.40
2018-06-13T12:54:50.293Z,21.50
2018-06-13T12:57:27.837Z,18.30
2018-06-13T13:00:04.807Z,19.30
2018-06-13T13:02:41.843Z,20.30
2018-06-13T13:05:19.316Z,20.15
2018-06-13T13:07:56.453Z,18.83
2018-06-13T13:10:33.014Z,20.47
2018-06-13T13:13:10.136Z,15.48
2018-06-13T13:15:47.325Z,19.13
2018-06-13T13:18:24.002Z,20.60
2018-06-13T13:21:01.304Z,20.57
2018-06-13T13:23:38.054Z,23.50
2018-06-13T13:26:14.762Z,22.60
2018-06-13T13:28:52.026Z,16.02
2018-06-13T13:34:05.091Z,23.63
2018-06-13T13:36:41.982Z,20.13
2018-06-13T13:39:19.099Z,23.73
2018-06-13T13:41:55.913Z,21.90
2018-06-13T13:44:32.990Z,19.30
2018-06-13T13:47:09.529Z,25.53
2018-06-13T13:49:47.265Z,24.10
2018-06-13T13:52:24.099Z,17.93
2018-06-13T13:55:01.088Z,19.03
2018-06-13T13:57:38.445Z,19.67
2018-06-13T14:00:16.133Z,23.98
2018-06-13T14:02:53.091Z,24.63
2018-06-13T14:05:29.854Z,19.43
2018-06-13T14:08:07.917Z,22.10
2018-06-13T14:10:45.082Z,22.30
2018-06-13T14:13:22.002Z,16.42
2018-06-13T14:15:59.095Z,20.33
2018-06-13T14:18:37.091Z,22.47
2018-06-13T14:21:14.087Z,18.57
2018-06-13T14:23:51.516Z,21.60
2018-06-13T14:26:28.548Z,19.23
2018-06-13T14:29:05.288Z,18.87
2018-06-13T14:34:17.271Z,23.23
2018-06-13T14:36:55.120Z,20.83
2018-06-13T14:39:32.434Z,23.63
2018-06-13T14:42:09.750Z,24.97
2018-06-13T14:44:47.090Z,17.52
2018-06-13T14:47:23.858Z,19.57
2018-06-13T14:50:01.547Z,19.67
2018-06-13T14:52:39.095Z,28.05
2018-06-13T14:55:16.117Z,19.90
2018-06-13T14:57:53.118Z,23.92
2018-06-13T15:00:31.113Z,26.93
2018-06-13T15:03:08.271Z,26.23
2018-06-13T15:05:45.214Z,29.55
2018-06-13T15:08:21.747Z,26.87
2018-06-13T15:10:59.095Z,24.80
2018-06-13T15:13:36.088Z,25.20
2018-06-13T15:16:12.997Z,26.17
2018-06-13T15:18:50.098Z,26.57
2018-06-13T15:21:28.097Z,23.00
2018-06-13T15:24:05.305Z,24.70
2018-06-13T15:26:42.543Z,19.77
2018-06-13T15:29:19.525Z,24.80
2018-06-13T15:31:57.073Z,21.00
2018-06-13T15:34:34.781Z,24.77
2018-06-13T15:37:11.862Z,29.40
2018-06-13T15:39:49.116Z,24.03
2018-06-13T15:42:26.530Z,30.52
2018-06-13T15:45:04.710Z,22.73
2018-06-13T15:47:41.274Z,20.45
2018-06-13T15:52:54.093Z,24.43
2018-06-13T15:58:06.924Z,24.45
2018-06-13T16:00:43.771Z,25.20
2018-06-13T16:03:20.821Z,21.33
2018-06-13T16:05:58.095Z,24.05
2018-06-13T16:08:35.315Z,22.03
2018-06-13T16:11:12.560Z,20.73
2018-06-13T16:13:49.755Z,21.63
2018-06-13T16:16:26.865Z,22.23
2018-06-13T16:19:04.094Z,26.03
2018-06-13T16:21:41.490Z,23.15
2018-06-13T16:24:19.075Z,23.42
2018-06-13T16:26:55.325Z,21.93
2018-06-13T16:29:32.321Z,22.20
2018-06-13T16:32:09.488Z,20.03
2018-06-13T16:34:47.310Z,19.60
2018-06-13T16:37:23.852Z,23.03
2018-06-13T16:40:00.424Z,23.07
2018-06-13T16:42:38.268Z,21.57
2018-06-13T16:45:15.063Z,20.83
2018-06-13T16:47:52.593Z,19.80
2018-06-13T16:50:43.381Z,23.23
2018-06-13T16:53:31.404Z,22.87
2018-06-13T16:56:08.414Z,19.13
2018-06-13T16:58:44.872Z,19.10
2018-06-13T17:03:57.094Z,19.82
2018-06-13T17:06:33.817Z,19.40
2018-06-13T17:09:12.087Z,15.10
2018-06-13T17:11:49.322Z,18.23
2018-06-13T17:14:27.425Z,20.37
2018-06-13T17:17:04.482Z,20.93
2018-06-13T17:19:42.063Z,20.60
2018-06-13T17:22:19.301Z,18.70
2018-06-13T17:24:57.002Z,17.93
2018-06-13T17:27:34.048Z,23.12
2018-06-13T17:30:11.059Z,19.40
2018-06-13T17:32:48.087Z,19.70
2018-06-13T17:35:25.317Z,17.90
2018-06-13T17:38:03.087Z,21.23
2018-06-13T17:40:39.737Z,18.35
2018-06-13T17:43:16.474Z,21.15
2018-06-13T17:45:54.284Z,14.87
2018-06-13T17:48:31.072Z,16.97
2018-06-13T17:51:07.954Z,15.00
2018-06-13T17:53:45.506Z,21.48
2018-06-13T17:56:22.546Z,16.95
2018-06-13T17:58:59.306Z,15.30
2018-06-13T18:01:35.863Z,16.48
2018-06-13T18:04:13.308Z,15.23
2018-06-13T18:06:51.114Z,17.30
2018-06-13T18:09:28.293Z,15.30
2018-06-13T18:12:04.906Z,18.00
2018-06-13T18:14:43.095Z,20.12
2018-06-13T18:17:20.104Z,16.30
2018-06-13T18:19:57.102Z,17.40
2018-06-13T18:22:33.833Z,21.73
2018-06-13T18:25:10.761Z,17.60
2018-06-13T18:27:47.308Z,18.40
2018-06-13T18:30:24.093Z,17.37
2018-06-13T18:33:00.463Z,12.43
2018-06-13T18:35:37.566Z,12.78
2018-06-13T18:38:14.492Z,14.30
2018-06-13T18:43:27.075Z,12.85
2018-06-13T18:48:39.918Z,12.47
2018-06-13T18:51:17.061Z,12.83
2018-06-13T18:53:54.094Z,11.83
2018-06-13T18:56:31.890Z,9.77
2018-06-13T18:59:08.076Z,12.93
2018-06-13T19:01:45.201Z,11.53
2018-06-13T19:04:22.757Z,14.13
2018-06-13T19:06:59.873Z,11.15
2018-06-13T19:09:37.065Z,10.60
2018-06-13T19:12:13.518Z,8.57
2018-06-13T19:14:51.090Z,10.82
2018-06-13T19:17:28.094Z,10.53
2018-06-13T19:20:05.571Z,12.70
2018-06-13T19:22:42.876Z,14.43
2018-06-13T19:25:20.120Z,12.82
2018-06-13T19:27:57.300Z,10.53
2018-06-13T19:30:34.087Z,11.73
2018-06-13T19:33:11.102Z,10.32
2018-06-13T19:35:48.498Z,10.08
2018-06-13T19:38:25.420Z,12.85
2018-06-13T19:41:02.265Z,9.68
2018-06-13T19:43:41.694Z,11.30
2018-06-13T19:46:19.095Z,10.80
2018-06-13T19:48:56.476Z,11.78
2018-06-13T19:51:33.503Z,11.33
2018-06-13T19:54:14.867Z,9.57
2018-06-13T19:56:51.459Z,13.03
2018-06-13T19:59:29.266Z,10.93
2018-06-13T20:02:06.100Z,12.95
2018-06-13T20:04:46.937Z,12.95
2018-06-13T20:07:23.506Z,12.13
2018-06-13T20:10:00.276Z,10.88
2018-06-13T20:12:46.825Z,11.68
2018-06-13T20:15:27.918Z,11.80
2018-06-13T20:18:08.851Z,14.63
2018-06-13T20:20:45.418Z,11.10
2018-06-13T20:23:22.406Z,11.15
2018-06-13T20:26:03.084Z,7.53
2018-06-13T20:28:44.850Z,9.25
2018-06-13T20:31:29.914Z,8.27
2018-06-13T20:34:06.965Z,9.95
2018-06-13T20:36:43.997Z,7.63
2018-06-13T20:39:21.474Z,9.38
2018-06-13T20:41:58.462Z,7.53
2018-06-13T20:44:35.798Z,8.03
2018-06-13T20:47:13.091Z,10.47
2018-06-13T20:49:50.274Z,10.90
2018-06-13T20:52:27.829Z,10.70
2018-06-13T20:55:06.215Z,9.90
2018-06-13T20:57:43.275Z,11.33
2018-06-13T21:00:19.827Z,11.27
2018-06-13T21:02:56.108Z,11.70
2018-06-13T21:05:33.533Z,10.57
2018-06-13T21:08:11.283Z,9.53
2018-06-13T21:13:52.308Z,13.30
2018-06-13T21:16:30.049Z,12.30
2018-06-13T21:19:07.806Z,9.90
2018-06-13T21:21:45.208Z,13.22
2018-06-13T21:24:22.090Z,13.80
2018-06-13T21:26:58.516Z,13.97
2018-06-13T21:29:35.550Z,11.85
2018-06-13T21:32:12.085Z,10.00
2018-06-13T21:34:50.953Z,13.40
2018-06-13T21:37:28.855Z,9.63
2018-06-13T21:40:05.938Z,9.03
2018-06-13T21:44:53.090Z,8.50
2018-06-13T21:47:30.297Z,9.87
2018-06-13T21:50:07.402Z,12.35
2018-06-13T21:52:44.086Z,11.83
2018-06-13T21:55:21.532Z,12.15
2018-06-13T21:57:59.278Z,11.00
2018-06-13T22:00:36.559Z,12.28
2018-06-13T22:03:14.882Z,10.72
2018-06-13T22:05:52.121Z,10.78
2018-06-13T22:08:28.731Z,10.88
2018-06-13T22:11:06.118Z,10.25
2018-06-13T22:13:43.102Z,9.43
2018-06-13T22:16:19.808Z,10.00
2018-06-13T22:18:57.065Z,8.98
2018-06-13T22:21:34.093Z,10.43
2018-06-13T22:24:12.415Z,7.97
2018-06-13T22:26:49.076Z,9.55
2018-06-13T22:29:26.527Z,10.48
2018-06-13T22:32:03.422Z,10.93
2018-06-13T22:34:40.858Z,10.18
2018-06-13T22:37:18.068Z,9.83
2018-06-13T22:39:54.627Z,11.33
2018-06-13T22:42:31.814Z,13.07
2018-06-13T22:45:10.265Z,11.53
2018-06-13T22:47:47.076Z,15.85
2018-06-13T22:50:24.275Z,13.03
2018-06-13T22:53:02.443Z,9.65
2018-06-13T22:55:39.318Z,11.77
2018-06-13T22:58:16.095Z,11.90
2018-06-13T23:01:12.784Z,11.70
2018-06-13T23:03:50.212Z,8.37
2018-06-13T23:06:27.465Z,12.80
2018-06-13T23:09:05.440Z,13.43
2018-06-13T23:11:42.403Z,10.53
2018-06-13T23:14:19.082Z,12.07
2018-06-13T23:16:56.106Z,12.13
2018-06-13T23:19:33.116Z,10.58
2018-06-13T23:22:09.091Z,11.85
2018-06-13T23:24:46.271Z,11.43
2018-06-13T23:27:22.284Z,10.75
2018-06-13T23:30:05.294Z,12.88
2018-06-13T23:32:41.081Z,10.98
2018-06-13T23:35:16.990Z,10.55
2018-06-13T23:40:47.299Z,10.78
2018-06-13T23:43:23.465Z,8.80
2018-06-13T23:45:59.093Z,9.48
2018-06-13T23:48:34.817Z,10.63
2018-06-13T23:51:10.770Z,11.80
2018-06-13T23:53:46.284Z,7.97
2018-06-13T23:56:22.080Z,9.53
2018-06-13T23:58:58.089Z,14.45
